Time;durP1;ratioP1;P1;durP2;ratioP2;P2;SDS_P1;SDS_P2;PMS_P1;PMS_P2;Temp;Humidity;BMP_temperature;BMP_pressure;BME280_temperature;BME280_humidity;BME280_pressure;Samples;Min_cycle;Max_cycle;Signal;HPM_P1;HPM_P2
2022/10/25 00:01:13;;;;;;;10.83;3.00;;;;;;;12.28;99.84;101057.94;4947090;28;20304;-76
2022/10/25 00:03:38;;;;;;;10.80;3.47;;;;;;;12.29;100.00;101057.09;4947205;29;20211;-76
2022/10/25 00:06:04;;;;;;;6.23;3.10;;;;;;;12.30;100.00;101066.56;4945466;29;20201;-73
2022/10/25 00:08:30;;;;;;;9.33;3.77;;;;;;;12.23;100.00;101060.44;4928638;28;20321;-75
2022/10/25 00:10:55;;;;;;;7.77;3.30;;;;;;;12.24;100.00;101061.28;4959868;28;20584;-77
2022/10/25 00:13:20;;;;;;;10.70;3.53;;;;;;;12.17;100.00;101057.75;4943033;29;20267;-76
2022/10/25 00:15:46;;;;;;;10.93;3.60;;;;;;;12.13;100.00;101055.97;4948572;29;20185;-75
2022/10/25 00:18:11;;;;;;;6.90;3.43;;;;;;;12.13;100.00;101053.41;4949459;28;20656;-77
2022/10/25 00:20:37;;;;;;;7.80;4.03;;;;;;;12.12;100.00;101059.41;4946655;28;20864;-77
2022/10/25 00:23:02;;;;;;;12.50;4.07;;;;;;;12.10;100.00;101052.50;4965921;28;20275;-77
2022/10/25 00:25:28;;;;;;;10.10;4.33;;;;;;;12.11;100.00;101059.38;4948225;28;20201;-76
2022/10/25 00:27:53;;;;;;;10.60;3.87;;;;;;;12.11;100.00;101059.38;4948796;29;20192;-77
2022/10/25 00:30:18;;;;;;;9.27;4.03;;;;;;;12.10;100.00;101058.53;4944956;29;20189;-75
2022/10/25 00:32:44;;;;;;;8.63;3.87;;;;;;;12.13;100.00;101062.84;4964211;28;20213;-76
2022/10/25 00:35:09;;;;;;;10.03;4.47;;;;;;;12.15;100.00;101061.16;4951064;28;20197;-76
2022/10/25 00:37:35;;;;;;;10.37;4.33;;;;;;;12.13;100.00;101055.97;4949070;28;20193;-76
2022/10/25 00:40:01;;;;;;;10.73;4.53;;;;;;;12.14;100.00;101055.16;4947774;29;20197;-75
2022/10/25 00:42:26;;;;;;;10.17;4.83;;;;;;;12.13;100.00;101058.56;4951615;28;20219;-77
2022/10/25 00:44:53;;;;;;;10.87;4.30;;;;;;;12.17;100.00;101059.50;4948607;28;20739;-77
2022/10/25 00:47:18;;;;;;;14.10;5.00;;;;;;;12.13;100.00;101052.56;4949956;29;20256;-76
2022/10/25 00:49:47;;;;;;;12.37;3.73;;;;;;;12.09;100.00;101059.38;4951134;28;20264;-76
2022/10/25 00:52:12;;;;;;;10.53;4.30;;;;;;;12.19;100.00;101056.09;4951224;28;20272;-77
2022/10/25 00:54:45;;;;;;;11.80;4.77;;;;;;;12.19;100.00;101060.38;4951283;28;20188;-77
2022/10/25 00:57:15;;;;;;;9.80;4.03;;;;;;;12.21;100.00;101064.69;4950293;29;20272;-76
2022/10/25 00:59:42;;;;;;;12.30;4.60;;;;;;;12.23;100.00;101064.72;4951072;28;20288;-76
2022/10/25 01:02:08;;;;;;;10.53;4.40;;;;;;;12.27;100.00;101053.66;4948092;28;20710;-77
2022/10/25 01:04:34;;;;;;;10.60;4.47;;;;;;;12.30;100.00;101054.56;4950967;28;20241;-75
2022/10/25 01:07:01;;;;;;;12.07;5.37;;;;;;;12.35;100.00;101054.66;4949433;28;20185;-78
2022/10/25 01:09:30;;;;;;;12.80;5.37;;;;;;;12.38;100.00;101063.25;4958337;28;20185;-78
2022/10/25 01:11:55;;;;;;;17.63;5.40;;;;;;;12.40;100.00;101063.28;4960024;29;20228;-78
2022/10/25 01:14:21;;;;;;;11.33;4.83;;;;;;;12.45;100.00;101067.63;4975410;28;20273;-75
2022/10/25 01:17:20;;;;;;;11.07;5.23;;;;;;;12.48;100.00;101059.09;4959551;28;20208;-78
2022/10/25 01:19:54;;;;;;;11.57;5.03;;;;;;;12.50;100.00;101063.41;4959285;29;20205;-76
2022/10/25 01:22:28;;;;;;;11.17;4.70;;;;;;;12.51;100.00;101061.72;4958378;28;20761;-77
2022/10/25 01:25:18;;;;;;;10.80;4.87;;;;;;;12.54;100.00;101060.06;4960442;28;20309;-76
2022/10/25 01:28:12;;;;;;;10.73;4.73;;;;;;;12.56;100.00;101062.66;4956698;29;20197;-76
2022/10/25 01:30:55;;;;;;;10.73;4.90;;;;;;;12.57;100.00;101060.13;4956672;29;20189;-77
2022/10/25 01:33:33;;;;;;;13.23;4.97;;;;;;;12.56;100.00;101058.41;4954692;28;20228;-78
2022/10/25 01:36:11;;;;;;;12.87;4.33;;;;;;;12.59;100.00;101057.56;4953614;29;20219;-77
2022/10/25 01:38:40;;;;;;;13.27;4.40;;;;;;;12.59;100.00;101058.41;4955142;29;20217;-77
2022/10/25 01:42:10;;;;;;;12.63;4.77;;;;;;;12.59;100.00;101062.72;4954922;29;20671;-77
2022/10/25 01:44:45;;;;;;;10.77;4.40;;;;;;;12.62;100.00;101057.59;4920113;29;20214;-77
2022/10/25 01:48:03;;;;;;;12.30;4.57;;;;;;;12.64;100.00;101058.50;4929918;29;20648;-76
2022/10/25 01:50:33;;;;;;;13.73;4.33;;;;;;;12.67;100.00;101059.41;4937448;29;20208;-75
2022/10/25 01:52:59;;;;;;;11.23;4.33;;;;;;;12.69;100.00;101064.56;4950619;28;20219;-77
2022/10/25 01:55:51;;;;;;;9.20;4.43;;;;;;;12.66;100.00;101064.50;4947456;28;20189;-77
2022/10/25 01:58:29;;;;;;;11.67;4.20;;;;;;;12.67;100.00;101069.69;4954157;28;20196;-77
2022/10/25 02:01:30;;;;;;;17.30;4.80;;;;;;;12.68;100.00;101056.00;4948123;29;20344;-77
2022/10/25 02:04:07;;;;;;;10.37;4.27;;;;;;;12.68;100.00;101055.13;4944976;28;20261;-77
2022/10/25 02:06:59;;;;;;;13.67;4.73;;;;;;;12.70;100.00;101054.31;4948022;28;20199;-74
2022/10/25 02:09:35;;;;;;;10.97;4.27;;;;;;;12.73;100.00;101053.50;4951401;29;20184;-76
2022/10/25 02:12:05;;;;;;;11.50;4.90;;;;;;;12.72;100.00;101057.75;4950170;29;20662;-78
2022/10/25 02:14:37;;;;;;;10.03;3.60;;;;;;;12.71;100.00;101057.72;4945755;28;20667;-79
2022/10/25 02:17:09;;;;;;;9.07;4.30;;;;;;;12.70;100.00;101066.28;4952439;28;20216;-78
2022/10/25 02:19:42;;;;;;;13.50;4.80;;;;;;;12.66;100.00;101070.53;4946572;28;20209;-77
2022/10/25 02:22:11;;;;;;;11.03;4.57;;;;;;;12.68;100.00;101071.41;4949592;29;20896;-78
2022/10/25 02:24:38;;;;;;;12.90;4.77;;;;;;;12.65;100.00;101063.66;4947498;29;20267;-76
2022/10/25 02:27:05;;;;;;;11.40;5.13;;;;;;;12.70;100.00;101074.88;4949024;29;20224;-77
2022/10/25 02:29:33;;;;;;;12.17;4.93;;;;;;;12.70;100.00;101068.84;4949138;29;20575;-78
2022/10/25 02:31:58;;;;;;;13.10;4.90;;;;;;;12.70;100.00;101069.75;4950014;29;20216;-77
2022/10/25 02:34:24;;;;;;;15.43;5.00;;;;;;;12.71;100.00;101068.88;4950778;28;20189;-77
2022/10/25 02:36:52;;;;;;;10.27;4.90;;;;;;;12.74;100.00;101071.50;4970572;28;20189;-78
2022/10/25 02:39:19;;;;;;;13.13;5.43;;;;;;;12.74;100.00;101073.22;4956527;29;20193;-77
2022/10/25 02:41:44;;;;;;;16.57;5.30;;;;;;;12.75;100.00;101068.09;4950850;29;20225;-77
2022/10/25 02:44:10;;;;;;;14.37;6.10;;;;;;;12.81;100.00;101068.16;4952196;28;20302;-77
2022/10/25 02:46:35;;;;;;;15.67;6.33;;;;;;;12.86;100.00;101078.53;4949835;28;20285;-77
2022/10/25 02:49:01;;;;;;;13.30;6.73;;;;;;;12.91;100.00;101070.00;4953610;28;20201;-76
2022/10/25 02:51:26;;;;;;;14.50;7.00;;;;;;;13.00;100.00;101073.59;4951191;28;20718;-77
2022/10/25 02:53:51;;;;;;;13.50;6.63;;;;;;;13.02;100.00;101079.63;4951457;29;20177;-77
2022/10/25 02:56:20;;;;;;;16.40;7.63;;;;;;;13.08;100.00;101083.13;4951871;29;20655;-78
2022/10/25 02:58:46;;;;;;;16.93;8.00;;;;;;;13.13;100.00;101083.19;4947469;28;20745;-75
2022/10/25 03:01:14;;;;;;;16.67;7.60;;;;;;;13.18;100.00;101089.25;4947032;28;20209;-76
2022/10/25 03:03:40;;;;;;;19.47;8.47;;;;;;;13.19;100.00;101086.72;4946247;28;20224;-77
2022/10/25 03:06:07;;;;;;;15.93;9.03;;;;;;;13.24;100.00;101085.06;4951841;28;20196;-76
2022/10/25 03:08:33;;;;;;;14.10;8.40;;;;;;;13.26;100.00;101091.06;4936460;29;20197;-78
2022/10/25 03:10:59;;;;;;;14.03;8.23;;;;;;;13.28;100.00;101094.56;4954184;29;20228;-78
2022/10/25 03:13:25;;;;;;;18.77;9.23;;;;;;;13.30;100.00;101094.56;4952252;28;20189;-77
2022/10/25 03:15:50;;;;;;;15.33;9.27;;;;;;;13.38;100.00;101093.81;4952255;28;20237;-78
2022/10/25 03:18:15;;;;;;;18.10;10.20;;;;;;;13.41;100.00;101104.16;4955582;29;20334;-79
2022/10/25 03:20:41;;;;;;;15.70;10.07;;;;;;;13.45;100.00;101097.31;4966072;28;20197;-78
2022/10/25 03:23:08;;;;;;;17.43;10.13;;;;;;;13.46;100.00;101102.50;4955529;28;20196;-79
2022/10/25 03:25:33;;;;;;;17.37;10.50;;;;;;;13.48;100.00;101107.66;4956920;29;20197;-76
2022/10/25 03:28:02;;;;;;;13.30;9.10;;;;;;;13.48;100.00;101105.94;4956641;28;20191;-77
2022/10/25 03:30:29;;;;;;;16.87;9.03;;;;;;;13.53;100.00;101100.84;4953749;28;20193;-76
2022/10/25 03:32:55;;;;;;;15.23;9.20;;;;;;;13.53;100.00;101104.28;4957230;29;20664;-77
2022/10/25 03:35:20;;;;;;;14.50;9.27;;;;;;;13.55;100.00;101109.44;4957625;28;20187;-77
2022/10/25 03:37:50;;;;;;;15.63;8.90;;;;;;;13.55;100.00;101114.59;4946914;28;20189;-73
2022/10/25 03:40:16;;;;;;;16.23;9.97;;;;;;;13.57;100.00;101113.75;4952046;29;20220;-78
2022/10/25 03:42:42;;;;;;;15.83;9.20;;;;;;;13.57;100.00;101108.59;4953811;28;20231;-78
2022/10/25 03:45:08;;;;;;;19.53;9.77;;;;;;;13.59;100.00;101113.78;4958216;28;20291;-77
2022/10/25 03:47:34;;;;;;;17.47;10.13;;;;;;;13.59;100.00;101113.78;4944806;29;20201;-77
2022/10/25 03:49:59;;;;;;;12.83;9.17;;;;;;;13.58;100.00;101118.06;4954748;28;20224;-77
2022/10/25 03:52:24;;;;;;;15.07;9.60;;;;;;;13.57;100.00;101116.34;4958522;28;20796;-76
2022/10/25 03:54:50;;;;;;;16.97;9.10;;;;;;;13.58;100.00;101120.63;4956265;29;20197;-77
2022/10/25 03:57:15;;;;;;;14.00;9.10;;;;;;;13.56;100.00;101122.34;4941986;29;20182;-78
2022/10/25 03:59:43;;;;;;;13.40;9.07;;;;;;;13.57;100.00;101128.31;4956408;28;20185;-77
2022/10/25 04:02:09;;;;;;;16.13;8.93;;;;;;;13.57;100.00;101130.91;4958592;28;20224;-77
2022/10/25 04:04:34;;;;;;;16.13;8.70;;;;;;;13.57;100.00;101136.91;4957507;28;20212;-77
2022/10/25 04:07:00;;;;;;;15.90;8.53;;;;;;;13.56;100.00;101132.63;4952811;28;20189;-76
2022/10/25 04:09:25;;;;;;;13.60;8.37;;;;;;;13.55;100.00;101136.06;4953811;28;20327;-76
2022/10/25 04:11:51;;;;;;;12.43;8.83;;;;;;;13.56;100.00;101136.88;4950501;29;20213;-77
2022/10/25 04:14:16;;;;;;;14.17;7.93;;;;;;;13.55;100.00;101138.63;4950870;29;20545;-79
2022/10/25 04:16:42;;;;;;;14.43;9.17;;;;;;;13.55;100.00;101138.63;4949231;29;20208;-76
2022/10/25 04:19:07;;;;;;;11.33;7.70;;;;;;;13.54;100.00;101142.00;4951134;28;20264;-79
2022/10/25 04:21:33;;;;;;;16.27;8.40;;;;;;;13.55;100.00;101140.31;4950788;28;20213;-79
2022/10/25 04:23:58;;;;;;;13.63;8.40;;;;;;;13.54;100.00;101148.88;4954322;28;20224;-78
2022/10/25 04:26:23;;;;;;;13.90;9.37;;;;;;;13.54;100.00;101148.88;4952101;28;20190;-78
2022/10/25 04:28:50;;;;;;;14.13;8.63;;;;;;;13.53;100.00;101140.28;4955604;28;20195;-77
2022/10/25 04:31:16;;;;;;;20.63;8.93;;;;;;;13.53;100.00;101142.88;4952554;28;20222;-77
2022/10/25 04:33:42;;;;;;;19.60;9.60;;;;;;;13.54;100.00;101151.47;4955028;28;20244;-78
2022/10/25 04:36:07;;;;;;;16.57;8.73;;;;;;;13.53;100.00;101147.16;4957164;28;20189;-75
2022/10/25 04:38:33;;;;;;;11.23;8.73;;;;;;;13.52;100.00;101148.88;4957768;29;20201;-78
2022/10/25 04:40:59;;;;;;;15.77;9.00;;;;;;;13.54;100.00;101149.72;4956610;28;20256;-78
2022/10/25 04:43:26;;;;;;;13.27;8.73;;;;;;;13.53;100.00;101148.00;4958394;28;20221;-78
2022/10/25 04:45:52;;;;;;;13.77;8.50;;;;;;;13.52;100.00;101143.72;4953408;28;20193;-77
2022/10/25 04:48:19;;;;;;;14.77;9.20;;;;;;;13.48;100.00;101154.81;4956695;29;20244;-76
2022/10/25 04:50:45;;;;;;;16.43;9.03;;;;;;;13.46;100.00;101151.38;4955283;29;20592;-77
2022/10/25 04:53:11;;;;;;;12.07;8.87;;;;;;;13.46;100.00;101146.22;4950889;29;20658;-77
2022/10/25 04:55:36;;;;;;;15.13;8.90;;;;;;;13.46;100.00;101146.22;4954207;28;20284;-75
2022/10/25 04:58:02;;;;;;;14.33;8.43;;;;;;;13.44;100.00;101147.91;4950372;29;20199;-76
2022/10/25 05:00:28;;;;;;;12.60;8.57;;;;;;;13.42;100.00;101154.75;4948964;29;20201;-76
2022/10/25 05:02:54;;;;;;;15.93;8.47;;;;;;;13.41;100.00;101153.03;4955682;28;20654;-77
2022/10/25 05:05:21;;;;;;;15.93;8.73;;;;;;;13.40;100.00;101151.28;4953562;28;20748;-76
2022/10/25 05:07:47;;;;;;;11.67;7.67;;;;;;;13.39;100.00;101153.84;4954669;29;20205;-77
2022/10/25 05:10:13;;;;;;;13.53;8.23;;;;;;;13.39;100.00;101159.00;4951415;29;20236;-77
2022/10/25 05:12:38;;;;;;;16.57;7.90;;;;;;;13.35;100.00;101159.78;4951115;29;20217;-76
2022/10/25 05:15:05;;;;;;;14.37;8.07;;;;;;;13.32;99.90;101165.75;4966692;28;20532;-76
2022/10/25 05:17:30;;;;;;;11.63;7.60;;;;;;;13.29;100.00;101162.25;4954010;29;20195;-76
2022/10/25 05:19:56;;;;;;;13.23;7.97;;;;;;;13.28;99.86;101168.25;4943322;29;20296;-77
2022/10/25 05:22:21;;;;;;;12.03;7.73;;;;;;;13.27;99.92;101169.09;4942282;29;20209;-76
2022/10/25 05:24:47;;;;;;;14.20;8.97;;;;;;;13.24;100.00;101169.06;4951315;29;20208;-76
2022/10/25 05:27:12;;;;;;;17.60;9.63;;;;;;;13.22;100.00;101165.59;4953259;28;20284;-76
2022/10/25 05:29:38;;;;;;;18.03;9.23;;;;;;;13.21;100.00;101161.31;4953368;28;20186;-77
2022/10/25 05:32:03;;;;;;;13.10;8.77;;;;;;;13.19;100.00;101157.84;4938144;29;20869;-76
2022/10/25 05:34:28;;;;;;;13.23;8.70;;;;;;;13.16;100.00;101161.25;4955025;28;20189;-76
2022/10/25 05:36:54;;;;;;;16.20;10.33;;;;;;;13.13;100.00;101158.66;4946022;28;20185;-78
2022/10/25 05:39:20;;;;;;;15.90;9.93;;;;;;;13.08;100.00;101161.97;4946500;28;20296;-76
2022/10/25 05:41:46;;;;;;;14.87;9.33;;;;;;;13.08;100.00;101159.41;4944604;28;20209;-76
2022/10/25 05:44:11;;;;;;;18.60;9.73;;;;;;;13.07;100.00;101165.41;4952798;28;20566;-77
2022/10/25 05:46:36;;;;;;;16.93;9.73;;;;;;;13.04;100.00;101168.78;4951674;28;20860;-80
2022/10/25 05:49:02;;;;;;;16.70;10.13;;;;;;;13.00;100.00;101169.59;4953120;29;20193;-79
2022/10/25 05:51:30;;;;;;;14.13;10.07;;;;;;;13.00;100.00;101173.84;4940445;29;20583;-76
2022/10/25 05:53:58;;;;;;;15.87;9.63;;;;;;;13.01;100.00;101171.31;4941699;29;20674;-79
2022/10/25 05:56:27;;;;;;;20.20;11.27;;;;;;;13.05;100.00;101170.53;4951171;29;20273;-75
2022/10/25 05:58:53;;;;;;;18.03;10.67;;;;;;;13.08;100.00;101182.56;4953078;28;20557;-76
2022/10/25 06:01:20;;;;;;;16.03;10.70;;;;;;;13.10;100.00;101183.44;4952505;28;20678;-77
2022/10/25 06:03:47;;;;;;;16.83;9.20;;;;;;;13.11;100.00;101187.75;4948065;28;20206;-79
2022/10/25 06:06:14;;;;;;;16.67;9.67;;;;;;;13.13;100.00;101197.22;4947533;28;20193;-77
2022/10/25 06:08:39;;;;;;;20.60;11.07;;;;;;;13.15;100.00;101200.66;4948826;29;20588;-78
2022/10/25 06:11:07;;;;;;;16.77;9.83;;;;;;;13.20;100.00;101204.16;4948887;29;20270;-77
2022/10/25 06:13:34;;;;;;;14.50;9.27;;;;;;;13.23;100.00;101199.06;4952189;28;20194;-77
2022/10/25 06:16:08;;;;;;;14.07;8.63;;;;;;;13.24;100.00;101208.50;4950939;29;20197;-78
2022/10/25 06:18:37;;;;;;;14.47;9.17;;;;;;;13.28;100.00;101199.13;4945619;29;20189;-77
2022/10/25 06:21:05;;;;;;;16.63;9.27;;;;;;;13.31;100.00;101201.75;4952815;29;20239;-78
2022/10/25 06:23:30;;;;;;;16.57;8.60;;;;;;;13.35;100.00;101204.38;4951290;29;20215;-76
2022/10/25 06:26:00;;;;;;;15.20;9.53;;;;;;;13.35;100.00;101204.38;4957525;28;20189;-77
2022/10/25 06:28:27;;;;;;;17.23;10.23;;;;;;;13.42;100.00;101208.78;4954806;29;20182;-77
2022/10/25 06:30:53;;;;;;;16.63;9.83;;;;;;;13.46;100.00;101207.09;4948155;29;20206;-76
2022/10/25 06:33:18;;;;;;;14.00;10.97;;;;;;;13.48;100.00;101216.56;4951128;29;20196;-77
2022/10/25 06:35:44;;;;;;;18.70;11.13;;;;;;;13.53;100.00;101219.22;4952417;28;20197;-77
2022/10/25 06:38:09;;;;;;;20.57;10.37;;;;;;;13.55;100.00;101217.50;4956657;28;20181;-75
2022/10/25 06:40:35;;;;;;;19.60;10.33;;;;;;;13.55;100.00;101223.53;4948196;29;20249;-74
2022/10/25 06:43:00;;;;;;;17.60;10.07;;;;;;;13.55;100.00;101223.53;4949985;28;20195;-78
2022/10/25 06:45:26;;;;;;;19.70;11.37;;;;;;;13.56;100.00;101225.25;4948676;28;20250;-77
2022/10/25 06:47:51;;;;;;;18.57;11.03;;;;;;;13.59;100.00;101232.16;4949930;29;20277;-76
2022/10/25 06:50:17;;;;;;;20.73;11.63;;;;;;;13.61;100.00;101236.47;4957452;28;20252;-77
2022/10/25 06:52:42;;;;;;;25.10;12.37;;;;;;;13.62;100.00;101238.19;4957427;28;20300;-76
2022/10/25 06:55:08;;;;;;;16.90;10.97;;;;;;;13.60;100.00;101239.91;4952568;28;20212;-76
2022/10/25 06:57:33;;;;;;;15.53;9.93;;;;;;;13.61;100.00;101241.63;4951198;28;20198;-78
2022/10/25 06:59:59;;;;;;;21.70;11.30;;;;;;;13.62;100.00;101243.34;4949476;29;20280;-77
2022/10/25 07:02:25;;;;;;;20.77;11.50;;;;;;;13.61;100.00;101246.75;4952533;28;20223;-77
2022/10/25 07:04:51;;;;;;;17.83;11.23;;;;;;;13.64;100.00;101240.78;4940536;28;20233;-77
2022/10/25 07:07:16;;;;;;;19.93;10.50;;;;;;;13.64;100.00;101249.38;4938589;28;20210;-75
2022/10/25 07:09:42;;;;;;;21.13;11.57;;;;;;;13.63;100.00;101255.34;4946258;28;20209;-76
2022/10/25 07:12:07;;;;;;;20.53;10.63;;;;;;;13.65;100.00;101255.38;4947645;28;20308;-77
2022/10/25 07:14:33;;;;;;;17.67;10.40;;;;;;;13.66;100.00;101263.13;4944127;28;20201;-76
2022/10/25 07:16:58;;;;;;;15.53;10.60;;;;;;;13.66;100.00;101259.69;4950880;28;20216;-77
2022/10/25 07:19:24;;;;;;;16.20;11.17;;;;;;;13.66;100.00;101264.81;4952244;28;20208;-76
2022/10/25 07:21:50;;;;;;;20.67;11.47;;;;;;;13.67;100.00;101272.56;4952452;28;20257;-74
2022/10/25 07:24:16;;;;;;;16.37;10.63;;;;;;;13.69;100.00;101272.59;4949726;28;20709;-76
2022/10/25 07:26:41;;;;;;;17.80;10.10;;;;;;;13.72;100.00;101270.94;4948669;28;20570;-75
2022/10/25 07:29:07;;;;;;;13.97;10.23;;;;;;;13.77;100.00;101271.00;4951232;28;20193;-76
2022/10/25 07:31:43;;;;;;;12.80;9.60;;;;;;;13.79;100.00;101275.31;4952049;28;20235;-76
2022/10/25 07:34:12;;;;;;;15.20;9.97;;;;;;;13.80;100.00;101268.44;4949871;29;20192;-76
2022/10/25 07:36:37;;;;;;;15.43;10.37;;;;;;;13.81;100.00;101272.78;4952482;28;20193;-75
2022/10/25 07:39:03;;;;;;;13.27;10.33;;;;;;;13.84;100.00;101271.09;4951889;28;20223;-78
2022/10/25 07:41:28;;;;;;;17.90;10.43;;;;;;;13.86;100.00;101266.81;4931852;28;20236;-77
2022/10/25 07:43:54;;;;;;;17.00;10.90;;;;;;;13.85;100.00;101275.41;4951666;28;20272;-78
2022/10/25 07:46:20;;;;;;;16.13;11.73;;;;;;;13.84;100.00;101281.41;4951481;28;20216;-77
2022/10/25 07:48:46;;;;;;;15.20;11.17;;;;;;;13.90;100.00;101286.63;4953099;28;20349;-79
2022/10/25 07:51:13;;;;;;;14.97;10.90;;;;;;;13.94;100.00;101284.94;4956686;28;20244;-78
2022/10/25 07:53:39;;;;;;;15.07;10.90;;;;;;;13.97;100.00;101285.88;4954939;29;20189;-78
2022/10/25 07:56:06;;;;;;;15.47;10.70;;;;;;;13.97;100.00;101295.28;4956835;29;20729;-76
2022/10/25 07:58:31;;;;;;;17.10;12.47;;;;;;;13.96;100.00;101291.00;4954367;28;20220;-77
2022/10/25 08:01:01;;;;;;;14.90;11.67;;;;;;;13.97;100.00;101291.00;4957405;28;20217;-77
2022/10/25 08:03:27;;;;;;;15.80;12.73;;;;;;;13.99;100.00;101302.19;4955142;28;20191;-77
2022/10/25 08:05:52;;;;;;;18.77;11.77;;;;;;;14.05;100.00;101303.97;4960736;28;20193;-77
2022/10/25 08:08:19;;;;;;;17.53;12.07;;;;;;;14.10;100.00;101295.47;4960984;28;20207;-77
2022/10/25 08:10:45;;;;;;;19.23;12.93;;;;;;;14.08;100.00;101304.03;4958586;28;20217;-77
2022/10/25 08:13:11;;;;;;;15.30;12.00;;;;;;;14.08;100.00;101297.16;4959054;28;20243;-77
2022/10/25 08:15:37;;;;;;;18.37;12.70;;;;;;;14.08;100.00;101309.19;4954459;28;20194;-77
2022/10/25 08:18:03;;;;;;;16.57;12.10;;;;;;;14.10;100.00;101310.06;4955109;28;20193;-76
2022/10/25 08:20:29;;;;;;;16.33;13.27;;;;;;;14.12;100.00;101316.94;4957067;28;20197;-77
2022/10/25 08:22:58;;;;;;;16.90;12.83;;;;;;;14.16;100.00;101318.72;4954549;28;20201;-77
2022/10/25 08:25:26;;;;;;;17.73;12.70;;;;;;;14.23;100.00;101324.84;4954070;28;20303;-78
2022/10/25 08:27:51;;;;;;;15.53;12.87;;;;;;;14.30;100.00;101324.06;4955137;29;20663;-75
2022/10/25 08:30:17;;;;;;;23.63;12.90;;;;;;;14.38;100.00;101328.47;4953408;28;20273;-77
2022/10/25 08:32:42;;;;;;;19.23;12.57;;;;;;;14.44;100.00;101327.66;4950939;29;20468;-75
2022/10/25 08:35:08;;;;;;;19.07;13.33;;;;;;;14.38;100.00;101332.75;4952790;28;20248;-76
2022/10/25 08:37:33;;;;;;;21.33;13.40;;;;;;;14.33;100.00;101332.72;4948062;29;20312;-76
2022/10/25 08:39:59;;;;;;;16.00;12.40;;;;;;;14.42;100.00;101337.97;4951865;28;20798;-78
2022/10/25 08:42:59;;;;;;;22.07;14.20;;;;;;;14.50;100.00;101332.91;4931342;28;20607;-76
2022/10/25 08:45:37;;;;;;;18.70;12.63;;;;;;;14.64;100.00;101336.50;4941386;29;20229;-75
2022/10/25 08:48:12;;;;;;;20.90;12.23;;;;;;;14.69;98.38;101334.84;4949566;29;20276;-78
2022/10/25 08:50:49;;;;;;;20.60;12.77;;;;;;;14.80;98.07;101339.25;4935470;28;20188;-78
2022/10/25 08:53:33;;;;;;;12.83;11.20;;;;;;;14.78;98.29;101347.81;4948573;29;20250;-79
2022/10/25 08:56:00;;;;;;;17.93;11.43;;;;;;;14.70;98.24;101349.44;4954208;28;20204;-76
2022/10/25 08:58:35;;;;;;;18.00;11.73;;;;;;;14.80;98.48;101347.00;4965150;28;20205;-76
2022/10/25 09:01:11;;;;;;;14.73;10.73;;;;;;;14.97;97.27;101349.75;4959680;28;20252;-78
2022/10/25 09:03:39;;;;;;;17.27;10.80;;;;;;;15.06;96.62;101345.50;4954162;28;20216;-76
2022/10/25 09:06:38;;;;;;;14.87;10.17;;;;;;;15.10;96.27;101360.16;4952279;28;20201;-77
2022/10/25 09:09:24;;;;;;;13.90;8.07;;;;;;;15.48;93.40;101351.06;4940780;29;20197;-78
2022/10/25 09:11:49;;;;;;;16.13;9.53;;;;;;;15.29;93.64;101366.38;4965382;28;20248;-76
2022/10/25 09:14:40;;;;;;;17.10;8.90;;;;;;;15.29;93.90;101356.91;4952547;29;20647;-78
2022/10/25 09:17:17;;;;;;;16.90;9.60;;;;;;;15.14;94.10;101368.81;4945044;28;20658;-78
2022/10/25 09:19:57;;;;;;;14.87;9.23;;;;;;;15.24;94.13;101373.22;4948676;28;20552;-79
2022/10/25 09:22:29;;;;;;;16.93;9.53;;;;;;;15.33;93.87;101374.16;4944378;29;20225;-79
2022/10/25 09:25:08;;;;;;;13.87;9.73;;;;;;;15.31;93.17;101375.84;4950368;29;20221;-78
2022/10/25 09:27:57;;;;;;;16.80;9.87;;;;;;;15.32;93.63;101376.72;4945568;29;20197;-75
2022/10/25 09:30:23;;;;;;;14.10;8.97;;;;;;;15.35;93.24;101381.94;4947289;29;20576;-78
2022/10/25 09:32:55;;;;;;;17.63;9.53;;;;;;;15.51;92.35;101389.81;4950066;28;20209;-78
2022/10/25 09:35:26;;;;;;;11.63;8.43;;;;;;;15.85;91.12;101380.63;4948360;29;20561;-78
2022/10/25 09:38:00;;;;;;;14.73;8.33;;;;;;;15.97;90.28;101385.88;4948129;29;20679;-77
2022/10/25 09:40:57;;;;;;;12.23;7.27;;;;;;;15.97;89.79;101385.88;4951199;29;20196;-76
2022/10/25 09:43:29;;;;;;;10.83;7.47;;;;;;;16.09;88.62;101379.06;4943456;29;20291;-76
2022/10/25 09:46:00;;;;;;;12.40;8.00;;;;;;;16.82;86.73;101380.25;4949919;28;20190;-77
2022/10/25 09:48:38;;;;;;;12.13;7.00;;;;;;;17.01;83.61;101384.59;4947141;28;20212;-77
2022/10/25 09:51:18;;;;;;;13.93;6.83;;;;;;;16.82;84.53;101381.13;4952724;29;20566;-77
2022/10/25 09:53:45;;;;;;;10.93;6.67;;;;;;;16.55;85.18;101391.38;4946875;28;20237;-76
2022/10/25 09:56:11;;;;;;;13.10;6.00;;;;;;;18.93;77.50;101387.72;4952882;29;20328;-75
2022/10/25 09:58:43;;;;;;;11.63;6.70;;;;;;;17.59;79.25;101389.00;4946930;28;20291;-76
2022/10/25 10:01:19;;;;;;;13.07;6.50;;;;;;;17.25;82.46;101392.38;4954690;28;20225;-77
2022/10/25 10:03:45;;;;;;;9.67;6.30;;;;;;;17.74;80.05;101383.81;4934324;29;20648;-77
2022/10/25 10:06:21;;;;;;;13.43;6.97;;;;;;;17.14;81.68;101383.75;4953641;28;20267;-76
2022/10/25 10:08:55;;;;;;;13.63;7.20;;;;;;;17.12;82.52;101393.22;4952758;29;20204;-77
2022/10/25 10:11:21;;;;;;;14.80;6.63;;;;;;;17.79;78.94;101384.66;4954723;28;20204;-75
2022/10/25 10:13:53;;;;;;;14.50;7.83;;;;;;;18.85;76.54;101383.47;4946905;29;20186;-76
2022/10/25 10:16:34;;;;;;;13.37;6.93;;;;;;;19.16;72.21;101390.19;4956179;28;20193;-77
2022/10/25 10:19:23;;;;;;;10.60;6.50;;;;;;;17.96;77.64;101396.72;4955418;28;20231;-76
2022/10/25 10:21:57;;;;;;;11.77;6.40;;;;;;;20.79;66.92;101379.91;4936358;28;20328;-77
2022/10/25 10:24:29;;;;;;;9.87;5.43;;;;;;;19.42;70.43;101404.75;4954806;28;20244;-75
2022/10/25 10:26:58;;;;;;;11.03;6.07;;;;;;;18.03;76.28;101403.63;4950407;29;20198;-77
2022/10/25 10:29:25;;;;;;;8.70;5.80;;;;;;;18.44;76.05;101406.13;4953946;29;20975;-76
2022/10/25 10:31:54;;;;;;;10.83;6.10;;;;;;;17.97;77.18;101403.63;4970144;28;20205;-77
2022/10/25 10:34:29;;;;;;;10.33;6.80;;;;;;;17.27;79.74;101404.47;4946120;28;20181;-77
2022/10/25 10:37:05;;;;;;;11.93;7.17;;;;;;;17.35;81.35;101405.34;4954507;29;20287;-77
2022/10/25 10:39:31;;;;;;;11.30;5.90;;;;;;;20.30;69.27;101395.25;4955904;29;20197;-78
2022/10/25 10:42:02;;;;;;;11.50;5.83;;;;;;;20.96;66.79;101385.78;4957104;28;20209;-75
2022/10/25 10:44:33;;;;;;;7.72;4.22;;;;;;;24.84;53.51;101373.59;4958140;29;20224;-78
2022/10/25 10:47:10;;;;;;;8.90;4.72;;;;;;;20.26;65.59;101401.38;4955969;29;20193;-77
2022/10/25 10:49:39;;;;;;;9.73;4.90;;;;;;;18.34;73.51;101410.47;4954370;28;20243;-74
2022/10/25 10:52:13;;;;;;;10.27;5.90;;;;;;;17.75;75.14;101412.31;4953855;29;20216;-77
2022/10/25 10:54:46;;;;;;;9.87;5.83;;;;;;;17.70;76.50;101407.97;4956791;28;20190;-76
2022/10/25 10:57:28;;;;;;;10.47;5.87;;;;;;;18.38;74.61;101398.38;4957570;29;20617;-78
2022/10/25 10:59:55;;;;;;;8.50;5.30;;;;;;;19.64;68.31;101389.84;4953078;29;20213;-78
2022/10/25 11:02:27;;;;;;;10.03;4.90;;;;;;;25.30;53.82;101363.41;4958884;28;20216;-75
2022/10/25 11:04:54;;;;;;;7.55;3.65;;;;;;;21.68;57.54;101388.09;4954112;28;20216;-76
2022/10/25 11:07:25;;;;;;;8.10;4.70;;;;;;;19.33;70.20;101401.34;4964393;28;20283;-75
2022/10/25 11:09:51;;;;;;;8.48;4.55;;;;;;;27.10;47.06;101376.97;4951018;28;20212;-76
2022/10/25 11:12:17;;;;;;;8.10;4.30;;;;;;;29.21;41.02;101378.09;4951675;29;20778;-77
2022/10/25 11:14:43;;;;;;;8.10;3.42;;;;;;;28.31;41.29;101373.53;4952343;28;20396;-77
2022/10/25 11:17:24;;;;;;;10.18;3.78;;;;;;;28.51;42.40;101368.28;4952308;29;20196;-77
2022/10/25 11:20:21;;;;;;;6.90;3.45;;;;;;;23.92;52.36;101400.69;4944440;29;20208;-76